Annandale Estates, Indiana
Current Conditions -  °F | °C
As of 9:55 AM on Tuesday 21 Oct 2014 (Local Time) from K1II Reporting Station
Overcast Overcast  
Wind Chill: 50°   Ceiling: 5000
Heat Index: 50°   Visibility: 10mi
Dew Point: 45°   Wind: 6mph
Humidity: 82%   Direction: 330°NNW
Pressure: 30.08"   Gusts: NA
Location:  39.193°N, 86.2182°W
Report Text: K1II 211355Z AUTO 33005KT 10SM OVC050 10/07 A3008 RMK AO2
Loading
Personal Weather Stations






























Interactive Weather Map New forecast layout! Learn more

10-Day Weather Forecast

Advertisements
Track Severe Weather on mobile